BIND weather

Nýjidalur Airport
Nýjidalur, Southern Region, Iceland

Public forecast

Using degrees Celsius for public forecast. Weather courtesy of forecast.io.

Closest aviation weather report (METAR) to Nýjidalur Airport

Closest report is Akureyri Airport, 56.4 nm (104.5 km) N. Retrieved 2019/10/15 11:00 UTC (6 minutes ago):

BIAR 151100Z VRB03KT 9999 BKN034 09/02 Q1002 RMK WIND VADLAHEIDI 10037KT

Closest aviation forecast (TAF) to Nýjidalur Airport

Closest forecast is Akureyri Airport, 56.4 nm (104.5 km) N. Retrieved 2019/10/15 09:45 UTC (1 hour ago):

TAF TAF BIAR 150741Z 1509/1609 14010KT 9999 SCT020 BKN035 TX09/1515Z TN05/1603Z PROB40 TEMPO 1515/1600 12015G25KT